createdAt,value
2017-06-01T00:00:06.415Z,1016.76
2017-06-01T00:01:00.475Z,1016.75
2017-06-01T00:02:01.530Z,1016.77
2017-06-01T00:03:01.477Z,1016.76
2017-06-01T00:03:56.628Z,1016.74
2017-06-01T00:04:56.614Z,1016.73
2017-06-01T00:05:50.659Z,1016.73
2017-06-01T00:06:56.663Z,1016.68
2017-06-01T00:07:45.681Z,1016.70
2017-06-01T00:08:34.755Z,1016.69
2017-06-01T00:09:29.799Z,1016.63
2017-06-01T00:10:29.803Z,1016.63
2017-06-01T00:11:23.860Z,1016.62
2017-06-01T00:12:17.868Z,1016.65
2017-06-01T00:13:05.929Z,1016.63
2017-06-01T00:13:54.965Z,1016.66
2017-06-01T00:14:50.004Z,1016.63
2017-06-01T00:15:44.068Z,1016.63
2017-06-01T00:16:44.101Z,1016.65
2017-06-01T00:17:33.113Z,1016.68
2017-06-01T00:18:27.177Z,1016.68
2017-06-01T00:19:28.207Z,1016.67
2017-06-01T00:20:23.279Z,1016.65
2017-06-01T00:21:17.400Z,1016.66
2017-06-01T00:22:17.319Z,1016.67
2017-06-01T00:23:12.304Z,1016.68
2017-06-01T00:24:12.367Z,1016.70
2017-06-01T00:25:00.402Z,1016.70
2017-06-01T00:25:54.460Z,1016.71
2017-06-01T00:26:43.490Z,1016.66
2017-06-01T00:27:38.476Z,1016.67
2017-06-01T00:28:27.668Z,1016.69
2017-06-01T00:29:16.662Z,1016.66
2017-06-01T00:30:05.681Z,1016.66
2017-06-01T00:31:05.690Z,1016.66
2017-06-01T00:32:00.864Z,1016.66
2017-06-01T00:33:00.791Z,1016.72
2017-06-01T00:33:54.795Z,1016.68
2017-06-01T00:34:54.791Z,1016.64
2017-06-01T00:35:50.049Z,1016.69
2017-06-01T00:36:45.019Z,1016.66
2017-06-01T00:37:44.919Z,1016.62
2017-06-01T00:38:39.899Z,1016.64
2017-06-01T00:39:34.968Z,1016.62
2017-06-01T00:40:34.998Z,1016.61
2017-06-01T00:41:30.077Z,1016.59
2017-06-01T00:42:24.111Z,1016.56
2017-06-01T00:43:18.151Z,1016.57
2017-06-01T00:44:06.151Z,1016.59
2017-06-01T00:45:01.167Z,1016.57
2017-06-01T00:45:56.235Z,1016.57
2017-06-01T00:46:57.250Z,1016.57
2017-06-01T00:47:58.271Z,1016.57
2017-06-01T00:48:53.315Z,1016.56
2017-06-01T00:49:53.346Z,1016.57
2017-06-01T00:50:53.606Z,1016.60
2017-06-01T00:51:47.481Z,1016.57
2017-06-01T00:52:47.442Z,1016.57
2017-06-01T00:53:47.561Z,1016.56
2017-06-01T00:54:42.510Z,1016.57
2017-06-01T00:55:36.564Z,1016.58
2017-06-01T00:56:36.636Z,1016.59
2017-06-01T00:57:36.624Z,1016.58
2017-06-01T00:58:36.674Z,1016.57
2017-06-01T00:59:31.688Z,1016.62
2017-06-01T01:00:31.717Z,1016.59
2017-06-01T01:01:26.019Z,1016.59
2017-06-01T01:02:25.781Z,1016.64
2017-06-01T01:03:20.877Z,1016.63
2017-06-01T01:04:20.870Z,1016.68
2017-06-01T01:05:20.891Z,1016.66
2017-06-01T01:06:26.892Z,1016.65
2017-06-01T01:07:21.953Z,1016.69
2017-06-01T01:08:15.997Z,1016.71
2017-06-01T01:09:16.007Z,1016.71
2017-06-01T01:10:16.090Z,1016.74
2017-06-01T01:11:11.352Z,1016.68
2017-06-01T01:12:11.104Z,1016.71
2017-06-01T01:13:11.163Z,1016.70
2017-06-01T01:14:05.161Z,1016.74
2017-06-01T01:15:05.165Z,1016.69
2017-06-01T01:16:00.485Z,1016.70
2017-06-01T01:17:00.298Z,1016.71
2017-06-01T01:17:54.320Z,1016.69
2017-06-01T01:18:54.318Z,1016.65
2017-06-01T01:19:49.371Z,1016.66
2017-06-01T01:20:49.862Z,1016.62
2017-06-01T01:21:49.414Z,1016.63
2017-06-01T01:22:49.469Z,1016.63
2017-06-01T01:23:43.509Z,1016.63
2017-06-01T01:24:43.560Z,1016.59
2017-06-01T01:25:38.629Z,1016.64
2017-06-01T01:26:34.080Z,1016.59
2017-06-01T01:27:33.664Z,1016.61
2017-06-01T01:28:28.964Z,1016.61
2017-06-01T01:29:17.718Z,1016.61
2017-06-01T01:30:07.211Z,1016.60
2017-06-01T01:30:55.219Z,1016.59
2017-06-01T01:31:42.799Z,1016.56
2017-06-01T01:32:36.845Z,1016.62
2017-06-01T01:33:24.913Z,1016.59
2017-06-01T01:34:25.934Z,1016.61
2017-06-01T01:35:25.990Z,1016.56
2017-06-01T01:36:26.002Z,1016.53
2017-06-01T01:37:20.048Z,1016.54
2017-06-01T01:38:20.166Z,1016.53
2017-06-01T01:39:15.112Z,1016.54
2017-06-01T01:40:10.162Z,1016.55
2017-06-01T01:41:10.188Z,1016.58
2017-06-01T01:42:05.222Z,1016.60
2017-06-01T01:43:00.258Z,1016.58
2017-06-01T01:43:55.283Z,1016.60
2017-06-01T01:44:44.293Z,1016.60
2017-06-01T01:45:38.453Z,1016.59
2017-06-01T01:46:33.621Z,1016.61
2017-06-01T01:47:33.384Z,1016.62
2017-06-01T01:48:22.469Z,1016.62
2017-06-01T01:49:10.479Z,1016.60
2017-06-01T01:50:10.500Z,1016.63
2017-06-01T01:51:10.583Z,1016.60
2017-06-01T01:52:04.597Z,1016.61
2017-06-01T01:53:04.658Z,1016.61
2017-06-01T01:53:59.672Z,1016.62
2017-06-01T01:54:54.710Z,1016.58
2017-06-01T01:55:54.788Z,1016.63
2017-06-01T01:56:49.797Z,1016.62
2017-06-01T01:57:49.835Z,1016.65
2017-06-01T01:58:49.807Z,1016.63
2017-06-01T01:59:49.862Z,1016.65
2017-06-01T02:00:44.159Z,1016.62
2017-06-01T02:01:31.896Z,1016.66
2017-06-01T02:02:20.128Z,1016.66
2017-06-01T02:03:09.010Z,1016.66
2017-06-01T02:03:58.020Z,1016.66
2017-06-01T02:04:52.082Z,1016.71
2017-06-01T02:05:47.072Z,1016.69
2017-06-01T02:06:47.148Z,1016.69
2017-06-01T02:07:42.164Z,1016.69
2017-06-01T02:08:37.205Z,1016.67
2017-06-01T02:09:37.329Z,1016.68
2017-06-01T02:10:31.268Z,1016.69
2017-06-01T02:11:31.287Z,1016.69
2017-06-01T02:12:25.552Z,1016.67
2017-06-01T02:13:25.472Z,1016.68
2017-06-01T02:14:20.428Z,1016.66
2017-06-01T02:15:20.410Z,1016.66
2017-06-01T02:16:09.509Z,1016.63
2017-06-01T02:17:03.592Z,1016.67
2017-06-01T02:18:03.563Z,1016.67
2017-06-01T02:18:58.712Z,1016.66
2017-06-01T02:19:53.612Z,1016.65
2017-06-01T02:20:48.789Z,1016.63
2017-06-01T02:21:48.687Z,1016.66
2017-06-01T02:22:48.721Z,1016.59
2017-06-01T02:23:42.763Z,1016.62
2017-06-01T02:24:42.780Z,1016.61
2017-06-01T02:25:37.774Z,1016.62
2017-06-01T02:26:32.827Z,1016.62
2017-06-01T02:27:34.017Z,1016.60
2017-06-01T02:28:33.887Z,1016.63
2017-06-01T02:29:33.969Z,1016.60
2017-06-01T02:30:29.088Z,1016.62
2017-06-01T02:31:23.343Z,1016.60
2017-06-01T02:32:23.058Z,1016.60
2017-06-01T02:33:18.096Z,1016.58
2017-06-01T02:34:18.077Z,1016.58
2017-06-01T02:35:12.137Z,1016.53
2017-06-01T02:36:13.234Z,1016.55
2017-06-01T02:37:14.198Z,1016.56
2017-06-01T02:38:09.244Z,1016.51
2017-06-01T02:39:03.291Z,1016.54
2017-06-01T02:40:03.290Z,1016.48
2017-06-01T02:40:58.278Z,1016.48
2017-06-01T02:42:04.707Z,1016.51
2017-06-01T02:42:59.375Z,1016.47
2017-06-01T02:43:53.410Z,1016.48
2017-06-01T02:44:53.446Z,1016.47
2017-06-01T02:45:53.841Z,1016.42
2017-06-01T02:46:48.490Z,1016.47
2017-06-01T02:47:48.539Z,1016.46
2017-06-01T02:48:54.580Z,1016.50
2017-06-01T02:49:49.563Z,1016.51
2017-06-01T02:50:51.067Z,1016.49
2017-06-01T02:51:50.657Z,1016.50
2017-06-01T02:52:45.668Z,1016.52
2017-06-01T02:53:45.884Z,1016.58
2017-06-01T02:54:39.866Z,1016.53
2017-06-01T02:55:39.764Z,1016.53
2017-06-01T02:56:33.872Z,1016.58
2017-06-01T02:57:21.866Z,1016.60
2017-06-01T02:58:15.892Z,1016.58
2017-06-01T02:59:17.297Z,1016.62
2017-06-01T03:00:10.950Z,1016.60
2017-06-01T03:00:59.005Z,1016.65
2017-06-01T03:01:48.081Z,1016.65
2017-06-01T03:02:36.092Z,1016.59
2017-06-01T03:03:24.160Z,1016.63
2017-06-01T03:04:13.179Z,1016.62
2017-06-01T03:05:01.199Z,1016.62
2017-06-01T03:05:50.680Z,1016.65
2017-06-01T03:06:50.266Z,1016.61
2017-06-01T03:07:51.281Z,1016.66
2017-06-01T03:08:51.716Z,1016.65
2017-06-01T03:09:57.407Z,1016.64
2017-06-01T03:10:52.854Z,1016.69
2017-06-01T03:11:46.388Z,1016.71
2017-06-01T03:12:46.535Z,1016.67
2017-06-01T03:13:41.503Z,1016.68
2017-06-01T03:14:36.566Z,1016.70
2017-06-01T03:15:36.587Z,1016.71
2017-06-01T03:16:30.607Z,1016.71
2017-06-01T03:17:30.658Z,1016.72
2017-06-01T03:18:18.770Z,1016.69
2017-06-01T03:19:18.755Z,1016.69
2017-06-01T03:20:07.783Z,1016.69
2017-06-01T03:21:01.774Z,1016.69
2017-06-01T03:22:01.793Z,1016.72
2017-06-01T03:22:56.855Z,1016.70
2017-06-01T03:23:51.940Z,1016.69
2017-06-01T03:24:51.966Z,1016.70
2017-06-01T03:25:46.934Z,1016.65
2017-06-01T03:26:42.018Z,1016.68
2017-06-01T03:27:36.247Z,1016.68
2017-06-01T03:28:37.067Z,1016.67
2017-06-01T03:29:37.091Z,1016.69
2017-06-01T03:31:08.168Z,1016.64
2017-06-01T03:31:32.159Z,1016.67
2017-06-01T03:32:32.202Z,1016.65
2017-06-01T03:33:32.248Z,1016.65
2017-06-01T03:34:32.262Z,1016.66
2017-06-01T03:35:38.283Z,1016.67
2017-06-01T03:36:33.335Z,1016.65
2017-06-01T03:37:27.361Z,1016.66
2017-06-01T03:38:27.402Z,1016.62
2017-06-01T03:39:22.418Z,1016.64
2017-06-01T03:40:17.450Z,1016.66
2017-06-01T03:41:18.467Z,1016.67
2017-06-01T03:42:19.480Z,1016.68
2017-06-01T03:43:19.523Z,1016.68
2017-06-01T03:44:14.594Z,1016.67
2017-06-01T03:45:14.765Z,1016.69
2017-06-01T03:46:14.621Z,1016.67
2017-06-01T03:47:14.682Z,1016.69
2017-06-01T03:48:08.703Z,1016.68
2017-06-01T03:49:08.782Z,1016.71
2017-06-01T03:50:08.779Z,1016.70
2017-06-01T03:51:08.804Z,1016.72
2017-06-01T03:52:03.819Z,1016.72
2017-06-01T03:52:58.862Z,1016.71
2017-06-01T03:53:52.888Z,1016.75
2017-06-01T03:54:52.924Z,1016.75
2017-06-01T03:55:47.987Z,1016.77
2017-06-01T03:56:43.015Z,1016.83
2017-06-01T03:57:43.107Z,1016.80
2017-06-01T03:58:38.193Z,1016.80
2017-06-01T03:59:26.094Z,1016.84
2017-06-01T04:00:26.283Z,1016.83
2017-06-01T04:01:20.203Z,1016.85
2017-06-01T04:02:14.423Z,1016.85
2017-06-01T04:03:03.277Z,1016.83
2017-06-01T04:03:51.289Z,1016.82
2017-06-01T04:04:40.326Z,1016.82
2017-06-01T04:05:28.326Z,1016.80
2017-06-01T04:06:22.384Z,1016.80
2017-06-01T04:07:16.882Z,1016.84
2017-06-01T04:08:16.624Z,1016.83
2017-06-01T04:09:16.487Z,1016.84
2017-06-01T04:10:11.699Z,1016.84
2017-06-01T04:11:06.637Z,1016.88
2017-06-01T04:12:00.941Z,1016.91
2017-06-01T04:13:01.884Z,1016.89
2017-06-01T04:14:02.003Z,1016.92
2017-06-01T04:14:51.094Z,1016.92
2017-06-01T04:15:50.769Z,1016.95
2017-06-01T04:16:45.883Z,1016.95
2017-06-01T04:17:41.078Z,1016.94
2017-06-01T04:18:35.393Z,1016.96
2017-06-01T04:19:36.193Z,1016.97
2017-06-01T04:20:31.316Z,1016.93
2017-06-01T04:21:31.302Z,1016.95
2017-06-01T04:22:31.402Z,1016.93
2017-06-01T04:23:31.324Z,1016.92
2017-06-01T04:24:31.438Z,1016.90
2017-06-01T04:25:25.423Z,1016.89
2017-06-01T04:26:13.449Z,1016.87
2017-06-01T04:27:13.387Z,1016.89
2017-06-01T04:28:01.206Z,1016.86
2017-06-01T04:28:49.708Z,1016.83
2017-06-01T04:29:38.672Z,1016.84
2017-06-01T04:30:33.564Z,1016.84
2017-06-01T04:31:22.552Z,1016.89
2017-06-01T04:32:10.812Z,1016.88
2017-06-01T04:32:58.716Z,1016.91
2017-06-01T04:33:46.887Z,1016.89
2017-06-01T04:34:46.967Z,1016.93
2017-06-01T04:35:35.935Z,1016.97
2017-06-01T04:36:30.972Z,1016.90
2017-06-01T04:37:25.999Z,1016.90
2017-06-01T04:38:19.998Z,1016.87
2017-06-01T04:39:20.098Z,1016.90
2017-06-01T04:40:14.164Z,1016.90
2017-06-01T04:41:09.107Z,1016.93
2017-06-01T04:42:09.208Z,1016.90
2017-06-01T04:43:03.247Z,1016.94
2017-06-01T04:43:58.263Z,1016.86
2017-06-01T04:44:47.319Z,1016.91
2017-06-01T04:45:41.369Z,1016.91
2017-06-01T04:46:30.381Z,1016.91
2017-06-01T04:47:19.422Z,1016.96
2017-06-01T04:48:13.525Z,1016.96
2017-06-01T04:49:07.554Z,1016.99
2017-06-01T04:49:56.575Z,1017.00
2017-06-01T04:50:45.634Z,1017.03
2017-06-01T04:51:39.677Z,1017.01
2017-06-01T04:52:27.679Z,1017.01
2017-06-01T04:53:27.715Z,1017.04
2017-06-01T04:54:22.797Z,1017.03
2017-06-01T04:55:10.895Z,1017.04
2017-06-01T04:56:10.946Z,1017.05
2017-06-01T04:57:05.897Z,1017.08
2017-06-01T04:57:53.956Z,1017.08
2017-06-01T04:58:54.983Z,1017.06
2017-06-01T04:59:55.042Z,1017.05
2017-06-01T05:00:49.135Z,1017.06
2017-06-01T05:01:50.149Z,1017.11
2017-06-01T05:02:51.264Z,1017.11
2017-06-01T05:03:51.268Z,1017.11
2017-06-01T05:04:46.127Z,1017.16
2017-06-01T05:05:46.159Z,1017.13
2017-06-01T05:06:35.280Z,1017.16
2017-06-01T05:07:29.432Z,1017.17
2017-06-01T05:08:29.124Z,1017.11
2017-06-01T05:09:23.438Z,1017.12
2017-06-01T05:10:23.435Z,1017.16
2017-06-01T05:11:18.491Z,1017.16
2017-06-01T05:12:12.570Z,1017.19
2017-06-01T05:13:12.438Z,1017.17
2017-06-01T05:14:06.807Z,1017.21
2017-06-01T05:15:06.768Z,1017.21
2017-06-01T05:16:01.855Z,1017.20
2017-06-01T05:16:50.800Z,1017.18
2017-06-01T05:17:39.836Z,1017.19
2017-06-01T05:18:40.011Z,1017.18
2017-06-01T05:19:35.031Z,1017.18
2017-06-01T05:20:29.060Z,1017.18
2017-06-01T05:21:24.114Z,1017.20
2017-06-01T05:22:25.133Z,1017.17
2017-06-01T05:23:19.186Z,1017.17
2017-06-01T05:24:13.475Z,1017.19
2017-06-01T05:25:07.335Z,1017.19
2017-06-01T05:26:02.362Z,1017.18
2017-06-01T05:26:56.175Z,1017.17
2017-06-01T05:27:51.237Z,1017.17
2017-06-01T05:28:40.514Z,1017.20
2017-06-01T05:29:34.542Z,1017.17
2017-06-01T05:30:28.193Z,1017.21
2017-06-01T05:31:23.625Z,1017.18
2017-06-01T05:32:18.514Z,1017.14
2017-06-01T05:33:12.288Z,1017.20
2017-06-01T05:34:12.713Z,1017.16
2017-06-01T05:35:07.815Z,1017.20
2017-06-01T05:36:02.827Z,1017.23
2017-06-01T05:36:56.814Z,1017.18
2017-06-01T05:37:51.882Z,1017.25
2017-06-01T05:38:47.001Z,1017.16
2017-06-01T05:39:40.708Z,1017.20
2017-06-01T05:40:41.629Z,1017.16
2017-06-01T05:41:36.121Z,1017.16
2017-06-01T05:42:29.996Z,1017.22
2017-06-01T05:43:30.060Z,1017.16
2017-06-01T05:44:24.300Z,1017.20
2017-06-01T05:45:18.343Z,1017.19
2017-06-01T05:46:07.554Z,1017.17
2017-06-01T05:46:55.378Z,1017.16
2017-06-01T05:47:50.474Z,1017.19
2017-06-01T05:48:51.501Z,1017.22
2017-06-01T05:49:46.347Z,1017.19
2017-06-01T05:50:40.532Z,1017.16
2017-06-01T05:51:41.581Z,1017.21
2017-06-01T05:52:41.711Z,1017.18
2017-06-01T05:53:35.795Z,1017.21
2017-06-01T05:54:29.763Z,1017.19
2017-06-01T05:55:24.804Z,1017.21
2017-06-01T05:56:13.882Z,1017.23
2017-06-01T05:57:15.063Z,1017.26
2017-06-01T05:58:21.067Z,1017.24
2017-06-01T05:59:15.077Z,1017.24
2017-06-01T06:00:16.124Z,1017.21
2017-06-01T06:01:10.279Z,1017.20
2017-06-01T06:01:59.248Z,1017.24
2017-06-01T06:02:53.256Z,1017.23
2017-06-01T06:03:53.358Z,1017.20
2017-06-01T06:04:47.330Z,1017.25
2017-06-01T06:05:42.415Z,1017.24
2017-06-01T06:06:43.441Z,1017.21
2017-06-01T06:07:32.604Z,1017.23
2017-06-01T06:08:27.600Z,1017.21
2017-06-01T06:09:27.595Z,1017.19
2017-06-01T06:10:22.575Z,1017.15
2017-06-01T06:11:23.719Z,1017.18
2017-06-01T06:12:17.678Z,1017.18
2017-06-01T06:13:12.858Z,1017.20
2017-06-01T06:14:07.836Z,1017.21
2017-06-01T06:15:08.774Z,1017.24
2017-06-01T06:16:02.901Z,1017.24
2017-06-01T06:16:52.108Z,1017.25
2017-06-01T06:17:46.046Z,1017.26
2017-06-01T06:18:46.068Z,1017.27
2017-06-01T06:19:35.109Z,1017.29
2017-06-01T06:20:30.066Z,1017.25
2017-06-01T06:21:30.146Z,1017.27
2017-06-01T06:22:25.140Z,1017.27
2017-06-01T06:23:20.366Z,1017.28
2017-06-01T06:24:14.403Z,1017.31
2017-06-01T06:25:09.462Z,1017.32
2017-06-01T06:25:58.570Z,1017.32
2017-06-01T06:26:52.557Z,1017.31
2017-06-01T06:27:47.574Z,1017.31
2017-06-01T06:28:41.668Z,1017.29
2017-06-01T06:29:41.680Z,1017.38
2017-06-01T06:30:36.088Z,1017.32
2017-06-01T06:31:36.770Z,1017.41
2017-06-01T06:32:30.839Z,1017.36
2017-06-01T06:33:19.872Z,1017.35
2017-06-01T06:34:14.993Z,1017.35
2017-06-01T06:35:08.988Z,1017.37
2017-06-01T06:36:03.075Z,1017.40
2017-06-01T06:36:58.085Z,1017.41
2017-06-01T06:37:53.231Z,1017.46
2017-06-01T06:38:47.213Z,1017.49
2017-06-01T06:39:41.231Z,1017.42
2017-06-01T06:40:41.301Z,1017.47
2017-06-01T06:41:35.391Z,1017.44
2017-06-01T06:42:35.429Z,1017.45
2017-06-01T06:43:30.489Z,1017.44
2017-06-01T06:44:24.557Z,1017.46
2017-06-01T06:45:24.592Z,1017.45
2017-06-01T06:46:13.684Z,1017.50
2017-06-01T06:47:07.743Z,1017.45
2017-06-01T06:48:02.825Z,1017.43
2017-06-01T06:48:51.777Z,1017.40
2017-06-01T06:49:45.897Z,1017.43
2017-06-01T06:50:40.890Z,1017.38
2017-06-01T06:51:29.993Z,1017.41
2017-06-01T06:52:30.038Z,1017.34
2017-06-01T06:53:24.143Z,1017.32
2017-06-01T06:54:25.127Z,1017.39
2017-06-01T06:55:25.203Z,1017.38
2017-06-01T06:56:19.229Z,1017.37
2017-06-01T06:57:19.280Z,1017.39
2017-06-01T06:58:13.380Z,1017.38
2017-06-01T06:59:13.436Z,1017.37
2017-06-01T07:00:02.475Z,1017.36
2017-06-01T07:00:57.568Z,1017.37
2017-06-01T07:01:51.627Z,1017.34
2017-06-01T07:02:46.673Z,1017.31
2017-06-01T07:03:40.776Z,1017.34
2017-06-01T07:04:34.753Z,1017.29
2017-06-01T07:05:34.858Z,1017.32
2017-06-01T07:06:34.877Z,1017.34
2017-06-01T07:07:28.951Z,1017.38
2017-06-01T07:08:29.013Z,1017.34
2017-06-01T07:09:23.392Z,1017.34
2017-06-01T07:10:11.107Z,1017.34
2017-06-01T07:11:11.163Z,1017.31
2017-06-01T07:12:05.207Z,1017.29
2017-06-01T07:12:59.281Z,1017.29
2017-06-01T07:13:59.333Z,1017.28
2017-06-01T07:14:54.709Z,1017.28
2017-06-01T07:15:48.437Z,1017.29
2017-06-01T07:16:37.534Z,1017.31
2017-06-01T07:17:32.524Z,1017.31
2017-06-01T07:18:32.660Z,1017.32
2017-06-01T07:19:26.555Z,1017.31
2017-06-01T07:20:21.110Z,1017.28
2017-06-01T07:21:09.825Z,1017.27
2017-06-01T07:22:04.813Z,1017.29
2017-06-01T07:22:53.914Z,1017.32
2017-06-01T07:23:49.324Z,1017.27
2017-06-01T07:24:43.073Z,1017.30
2017-06-01T07:25:31.111Z,1017.28
2017-06-01T07:26:30.771Z,1017.32
2017-06-01T07:27:25.019Z,1017.29
2017-06-01T07:28:18.981Z,1017.33
2017-06-01T07:29:18.861Z,1017.28
2017-06-01T07:30:14.283Z,1017.30
2017-06-01T07:31:08.389Z,1017.28
2017-06-01T07:32:02.531Z,1017.31
2017-06-01T07:32:57.163Z,1017.28
2017-06-01T07:33:45.524Z,1017.24
2017-06-01T07:34:45.551Z,1017.30
2017-06-01T07:35:45.727Z,1017.25
2017-06-01T07:36:35.102Z,1017.19
2017-06-01T07:37:28.842Z,1017.23
2017-06-01T07:38:23.912Z,1017.21
2017-06-01T07:39:11.991Z,1017.22
2017-06-01T07:40:11.996Z,1017.22
2017-06-01T07:41:00.150Z,1017.23
2017-06-01T07:41:49.194Z,1017.20
2017-06-01T07:42:44.156Z,1017.24
2017-06-01T07:43:38.300Z,1017.20
2017-06-01T07:44:38.323Z,1017.23
2017-06-01T07:45:38.475Z,1017.19
2017-06-01T07:46:38.369Z,1017.16
2017-06-01T07:47:32.428Z,1017.16
2017-06-01T07:48:32.587Z,1017.18
2017-06-01T07:49:26.525Z,1017.16
2017-06-01T07:50:15.708Z,1017.15
2017-06-01T07:51:04.731Z,1017.14
2017-06-01T07:51:59.780Z,1017.15
2017-06-01T07:52:54.332Z,1017.13
2017-06-01T07:53:47.908Z,1017.21
2017-06-01T07:54:36.979Z,1017.15
2017-06-01T07:55:32.022Z,1017.15
2017-06-01T07:56:26.057Z,1017.12
2017-06-01T07:57:21.138Z,1017.21
2017-06-01T07:58:10.522Z,1017.17
2017-06-01T07:59:10.225Z,1017.24
2017-06-01T08:00:04.282Z,1017.21
2017-06-01T08:01:04.353Z,1017.24
2017-06-01T08:01:59.465Z,1017.18
2017-06-01T08:02:53.500Z,1017.13
2017-06-01T08:03:53.864Z,1017.19
2017-06-01T08:04:42.628Z,1017.24
2017-06-01T08:05:37.603Z,1017.26
2017-06-01T08:06:26.697Z,1017.23
2017-06-01T08:07:26.784Z,1017.19
2017-06-01T08:08:15.835Z,1017.19
2017-06-01T08:09:09.957Z,1017.26
2017-06-01T08:10:09.929Z,1017.25
2017-06-01T08:10:59.048Z,1017.21
2017-06-01T08:11:54.059Z,1017.25
2017-06-01T08:12:43.085Z,1017.28
2017-06-01T08:13:38.195Z,1017.30
2017-06-01T08:14:38.279Z,1017.28
2017-06-01T08:15:33.206Z,1017.25
2017-06-01T08:16:27.094Z,1017.27
2017-06-01T08:17:22.440Z,1017.26
2017-06-01T08:18:16.529Z,1017.26
2017-06-01T08:19:10.466Z,1017.25
2017-06-01T08:20:05.539Z,1017.26
2017-06-01T08:21:00.781Z,1017.23
2017-06-01T08:21:54.710Z,1017.17
2017-06-01T08:22:54.766Z,1017.18
2017-06-01T08:23:43.786Z,1017.23
2017-06-01T08:24:37.897Z,1017.16
2017-06-01T08:25:32.002Z,1017.15
2017-06-01T08:26:25.998Z,1017.19
2017-06-01T08:27:21.038Z,1017.17
2017-06-01T08:28:21.097Z,1017.17
2017-06-01T08:29:10.149Z,1017.19
2017-06-01T08:30:04.215Z,1017.19
2017-06-01T08:30:53.582Z,1017.20
2017-06-01T08:31:47.346Z,1017.15
2017-06-01T08:32:41.396Z,1017.16
2017-06-01T08:33:41.469Z,1017.14
2017-06-01T08:34:36.493Z,1017.14
2017-06-01T08:35:25.547Z,1017.15
2017-06-01T08:36:20.945Z,1017.21
2017-06-01T08:37:20.678Z,1017.16
2017-06-01T08:38:20.773Z,1017.18
2017-06-01T08:39:14.807Z,1017.18
2017-06-01T08:40:03.935Z,1017.19
2017-06-01T08:40:57.939Z,1017.22
2017-06-01T08:41:47.404Z,1017.20
2017-06-01T08:42:41.056Z,1017.16
2017-06-01T08:43:35.162Z,1017.20
2017-06-01T08:44:30.186Z,1017.20
2017-06-01T08:45:24.231Z,1017.23
2017-06-01T08:46:13.351Z,1017.25
2017-06-01T08:47:07.384Z,1017.24
2017-06-01T08:47:55.471Z,1017.18
2017-06-01T08:48:49.528Z,1017.13
2017-06-01T08:49:44.609Z,1017.14
2017-06-01T08:50:32.631Z,1017.14
2017-06-01T08:51:26.740Z,1017.13
2017-06-01T08:52:15.737Z,1017.09
2017-06-01T08:53:09.861Z,1017.12
2017-06-01T08:54:09.972Z,1017.15
2017-06-01T08:54:57.937Z,1017.17
2017-06-01T08:55:52.026Z,1017.19
2017-06-01T08:56:46.095Z,1017.16
2017-06-01T08:57:41.196Z,1017.15
2017-06-01T08:58:35.234Z,1017.16
2017-06-01T08:59:23.282Z,1017.15
2017-06-01T09:00:17.406Z,1017.07
2017-06-01T09:01:11.423Z,1017.12
2017-06-01T09:02:00.480Z,1017.09
2017-06-01T09:03:00.605Z,1017.09
2017-06-01T09:03:55.615Z,1017.06
2017-06-01T09:04:44.771Z,1017.05
2017-06-01T09:05:44.739Z,1017.04
2017-06-01T09:06:44.802Z,1017.06
2017-06-01T09:07:38.839Z,1017.01
2017-06-01T09:08:34.291Z,1016.93
2017-06-01T09:09:21.966Z,1016.98
2017-06-01T09:10:22.027Z,1017.00
2017-06-01T09:11:16.089Z,1017.06
2017-06-01T09:12:10.159Z,1017.07
2017-06-01T09:12:59.229Z,1017.10
2017-06-01T09:13:48.821Z,1017.05
2017-06-01T09:14:42.341Z,1017.11
2017-06-01T09:15:31.391Z,1017.15
2017-06-01T09:16:20.469Z,1017.08
2017-06-01T09:17:20.519Z,1017.10
2017-06-01T09:18:09.587Z,1017.09
2017-06-01T09:19:04.695Z,1017.13
2017-06-01T09:19:58.715Z,1017.11
2017-06-01T09:20:53.826Z,1017.10
2017-06-01T09:21:53.846Z,1017.09
2017-06-01T09:22:48.951Z,1017.07
2017-06-01T09:23:43.041Z,1017.08
2017-06-01T09:24:38.134Z,1017.00
2017-06-01T09:25:32.078Z,1016.99
2017-06-01T09:26:32.168Z,1017.03
2017-06-01T09:27:27.228Z,1017.00
2017-06-01T09:28:21.305Z,1017.04
2017-06-01T09:29:16.398Z,1017.03
2017-06-01T09:30:05.472Z,1017.05
2017-06-01T09:30:59.481Z,1017.02
2017-06-01T09:31:53.511Z,1017.00
2017-06-01T09:32:54.602Z,1016.99
2017-06-01T09:33:54.678Z,1016.97
2017-06-01T09:34:54.683Z,1017.00
2017-06-01T09:35:54.814Z,1016.99
2017-06-01T09:36:54.839Z,1016.98
2017-06-01T09:37:54.885Z,1016.94
2017-06-01T09:38:54.929Z,1016.93
2017-06-01T09:39:55.065Z,1016.95
2017-06-01T09:40:50.047Z,1016.88
2017-06-01T09:41:50.426Z,1016.88
2017-06-01T09:42:45.172Z,1016.85
2017-06-01T09:43:40.224Z,1016.86
2017-06-01T09:44:34.309Z,1016.87
2017-06-01T09:45:23.423Z,1016.81
2017-06-01T09:46:12.426Z,1016.82
2017-06-01T09:47:08.131Z,1016.82
2017-06-01T09:48:01.791Z,1016.85
2017-06-01T09:49:02.866Z,1016.80
2017-06-01T09:50:02.713Z,1016.84
2017-06-01T09:50:57.798Z,1016.79
2017-06-01T09:51:51.847Z,1016.77
2017-06-01T09:52:40.241Z,1016.80
2017-06-01T09:53:33.958Z,1016.78
2017-06-01T09:54:28.057Z,1016.82
2017-06-01T09:55:23.144Z,1016.82
2017-06-01T09:56:17.207Z,1016.83
2017-06-01T09:57:17.237Z,1016.79
2017-06-01T09:58:12.632Z,1016.83
2017-06-01T09:59:06.307Z,1016.76
2017-06-01T10:00:00.441Z,1016.75
2017-06-01T10:00:55.489Z,1016.71
2017-06-01T10:01:50.543Z,1016.74
2017-06-01T10:02:50.622Z,1016.72
2017-06-01T10:03:39.725Z,1016.73
2017-06-01T10:04:39.810Z,1016.72
2017-06-01T10:05:39.771Z,1016.66
2017-06-01T10:06:28.841Z,1016.72
2017-06-01T10:07:23.911Z,1016.71
2017-06-01T10:08:24.005Z,1016.79
2017-06-01T10:09:24.037Z,1016.73
2017-06-01T10:10:24.107Z,1016.71
2017-06-01T10:11:24.210Z,1016.73
2017-06-01T10:12:18.227Z,1016.70
2017-06-01T10:13:12.310Z,1016.72
2017-06-01T10:14:06.420Z,1016.72
2017-06-01T10:15:01.462Z,1016.71
2017-06-01T10:15:50.582Z,1016.68
2017-06-01T10:16:39.559Z,1016.71
2017-06-01T10:17:34.700Z,1016.71
2017-06-01T10:18:35.715Z,1016.63
2017-06-01T10:19:30.825Z,1016.64
2017-06-01T10:20:25.899Z,1016.67
2017-06-01T10:21:19.888Z,1016.70
2017-06-01T10:22:15.002Z,1016.66
2017-06-01T10:23:10.021Z,1016.63
2017-06-01T10:23:59.120Z,1016.68
2017-06-01T10:24:59.179Z,1016.67
2017-06-01T10:25:48.287Z,1016.63
2017-06-01T10:26:37.304Z,1016.63
2017-06-01T10:27:26.418Z,1016.59
2017-06-01T10:28:15.512Z,1016.58
2017-06-01T10:29:04.573Z,1016.62
2017-06-01T10:29:52.674Z,1016.64
2017-06-01T10:30:47.088Z,1016.58
2017-06-01T10:31:34.830Z,1016.57
2017-06-01T10:32:23.923Z,1016.57
2017-06-01T10:33:13.047Z,1016.56
2017-06-01T10:34:07.098Z,1016.50
2017-06-01T10:35:01.174Z,1016.49
2017-06-01T10:35:51.128Z,1016.52
2017-06-01T10:36:39.299Z,1016.55
2017-06-01T10:37:34.383Z,1016.53
2017-06-01T10:38:23.523Z,1016.53
2017-06-01T10:39:23.570Z,1016.52
2017-06-01T10:40:23.683Z,1016.51
2017-06-01T10:41:17.781Z,1016.51
2017-06-01T10:42:11.891Z,1016.52
2017-06-01T10:43:05.909Z,1016.47
2017-06-01T10:43:59.983Z,1016.51
2017-06-01T10:44:48.063Z,1016.47
2017-06-01T10:45:36.179Z,1016.48
2017-06-01T10:46:30.245Z,1016.45
2017-06-01T10:47:24.293Z,1016.44
2017-06-01T10:48:24.404Z,1016.41
2017-06-01T10:49:18.537Z,1016.42
2017-06-01T10:50:13.624Z,1016.41
2017-06-01T10:51:07.762Z,1016.44
2017-06-01T10:52:02.036Z,1016.41
2017-06-01T10:52:56.873Z,1016.40
2017-06-01T10:53:44.983Z,1016.40
2017-06-01T10:54:39.030Z,1016.38
2017-06-01T10:55:33.110Z,1016.33
2017-06-01T10:56:34.189Z,1016.34
2017-06-01T10:57:23.278Z,1016.33
2017-06-01T10:58:18.400Z,1016.34
2017-06-01T10:59:13.445Z,1016.37
2017-06-01T11:00:08.523Z,1016.33
2017-06-01T11:01:02.690Z,1016.36
2017-06-01T11:01:56.721Z,1016.29
2017-06-01T11:02:51.779Z,1016.31
2017-06-01T11:03:45.861Z,1016.30
2017-06-01T11:04:39.994Z,1016.33
2017-06-01T11:05:41.059Z,1016.30
2017-06-01T11:06:36.120Z,1016.24
2017-06-01T11:07:31.534Z,1016.27